Latest Weather Observations for Bellambi

IDN60901

Issued at 8:01 pm EST Tuesday 1 September 2015 (issued every 10 minutes, with the page automatically refreshed every 10 minutes)

About weather observations | Map of Sydney area stations | Latest observations for Sydney area | Other Formats
Station Details ID: 068228 Name: BELLAMBI AWS Lat: -34.37 Lon: 150.93 Height: 10.0 m
Data from the previous 72 hours. | See also: Recent months at Bellambi
Date/Time
EST
Tmp

°C
App
Tmp
°C
Dew
Point
°C
Rel
Hum
%
Delta-T

°C
Wind Press
QNH
hPa
Press
MSL
hPa
Rain
since
9 am
mm
Dir
 
Spd
km/h
Gust
km/h
Spd
kts
Gust
kts
01/07:30pm 11.1 8.0 5.4 68 2.6 WNW 11 11 6 6 - - 0.0
01/07:00pm 11.3 8.6 5.4 67 2.7 WNW 9 9 5 5 - - 0.0
01/06:30pm 12.1 9.3 5.3 63 3.1 WNW 9 11 5 6 - - 0.0
01/06:00pm 12.6 10.2 5.1 60 3.5 WNW 7 9 4 5 - - 0.0
01/05:30pm 13.8 11.7 5.7 58 3.8 N 6 11 3 6 - - 0.0
01/05:00pm 14.9 12.7 5.4 53 4.5 NNE 6 9 3 5 - - 0.0
01/04:30pm 15.2 12.9 4.6 49 4.9 NE 6 7 3 4 - - 0.0
01/04:00pm 15.4 13.6 5.3 51 4.8 ENE 4 9 2 5 - - 0.0
01/03:30pm 15.4 12.9 3.9 46 5.3 E 6 7 3 4 - - 0.0
01/03:00pm 15.4 13.0 4.5 48 5.1 SE 6 7 3 4 - - 0.0
01/02:30pm 15.4 13.0 5.3 51 4.8 ESE 7 9 4 5 - - 0.0
01/02:00pm 15.3 12.5 5.2 51 4.8 ESE 9 11 5 6 - - 0.0
01/01:30pm 15.1 12.3 5.0 51 4.7 ESE 9 13 5 7 - - 0.0
01/01:00pm 15.0 11.8 5.2 52 4.6 E 11 13 6 7 - - 0.0
01/12:30pm 15.0 11.7 6.3 56 4.2 E 13 17 7 9 - - 0.0
01/12:00pm 14.7 10.8 5.5 54 4.4 SE 15 17 8 9 - - 0.0
01/11:30am 14.9 10.9 5.1 52 4.6 SSE 15 20 8 11 - - 0.0
01/11:00am 14.5 9.7 4.5 51 4.6 SSE 19 24 10 13 - - 0.0
01/10:30am 14.8 10.3 4.2 49 4.9 SSW 17 24 9 13 - - 0.0
01/10:00am 14.1 9.3 4.4 52 4.5 SSW 19 26 10 14 - - 0.0
01/09:30am 13.7 8.6 4.0 52 4.4 SW 20 28 11 15 - - 0.0
01/09:00am 13.7 8.8 5.3 57 3.9 SW 20 28 11 15 - - 0.0
01/08:30am 12.9 8.4 4.3 56 3.9 WSW 17 20 9 11 - - 0.0
01/08:00am 12.0 7.5 4.2 59 3.5 WSW 17 28 9 15 - - 0.0
01/07:30am 11.2 7.4 4.0 61 3.2 WSW 13 22 7 12 - - 0.0
01/07:00am 10.2 7.1 3.7 64 2.9 WSW 9 15 5 8 - - 0.0
01/06:30am 9.8 5.2 3.5 65 2.7 WSW 17 20 9 11 - - 0.0
01/06:00am 9.9 5.3 3.9 66 2.6 WSW 17 26 9 14 - - 0.0
01/05:30am 10.0 6.2 4.0 66 2.6 W 13 20 7 11 - - 0.0
01/05:00am 10.2 6.1 4.1 66 2.7 W 15 20 8 11 - - 0.0
01/04:30am 10.4 6.6 3.9 64 2.9 W 13 17 7 9 - - 0.0
01/04:00am 10.7 6.9 4.0 63 3.0 W 13 19 7 10 - - 0.0
01/03:30am 11.0 7.6 4.0 62 3.1 WSW 11 17 6 9 - - 0.0
01/03:00am 10.9 7.1 3.9 62 3.1 WSW 13 17 7 9 - - 0.0
01/02:30am 11.4 6.9 4.2 61 3.2 W 17 24 9 13 - - 0.0
01/02:00am 11.2 6.7 4.0 61 3.2 WSW 17 22 9 12 - - 0.0
01/01:30am 11.7 6.7 3.7 58 3.6 WSW 19 28 10 15 - - 0.0
01/01:00am 11.6 7.4 3.9 59 3.4 WSW 15 22 8 12 - - 0.0
01/12:30am 11.4 8.0 3.9 60 3.3 W 11 15 6 8 - - 0.0
01/12:00am 11.9 7.8 4.2 59 3.5 WSW 15 22 8 12 - - 0.0
 
Date/Time
EST
Tmp

°C
App
Tmp
°C
Dew
Point
°C
Rel
Hum
%
Delta-T

°C
Wind Press
QNH
hPa
Press
MSL
hPa
Rain
since
9 am
mm
Dir
 
Spd
km/h
Gust
km/h
Spd
kts
Gust
kts
31/11:30pm 11.7 8.1 5.1 64 3.0 W 13 17 7 9 - - 0.0
31/11:00pm 11.4 8.5 6.3 71 2.4 WNW 11 19 6 10 - - 0.0
31/10:30pm 11.1 8.2 6.6 74 2.1 NW 11 13 6 7 - - 0.0
31/10:00pm 11.4 8.9 6.7 73 2.2 WNW 9 13 5 7 - - 0.0
31/09:30pm 11.8 9.3 6.7 71 2.4 WNW 9 11 5 6 - - 0.0
31/09:00pm 11.9 9.1 6.8 71 2.4 WSW 11 13 6 7 - - 0.0
31/08:30pm 12.1 9.7 7.0 71 2.4 WSW 9 13 5 7 - - 0.0
31/08:00pm 12.4 9.3 7.3 71 2.5 WSW 13 17 7 9 - - 0.0
31/07:30pm 12.5 9.4 7.4 71 2.5 WSW 13 17 7 9 - - 0.0
31/07:00pm 12.3 9.9 7.2 71 2.5 WSW 9 13 5 7 - - 0.0
31/06:30pm 13.0 11.1 7.5 69 2.7 WNW 7 9 4 5 - - 0.0
31/06:00pm 14.0 10.1 7.3 64 3.3 SW 17 26 9 14 - - 0.0
31/05:30pm 15.0 10.2 8.9 67 3.1 S 24 30 13 16 - - 0.0
31/05:00pm 15.0 9.3 8.3 64 3.4 S 28 35 15 19 - - 0.0
31/04:30pm 15.2 9.6 8.7 65 3.3 S 28 32 15 17 - - 0.0
31/04:00pm 15.4 10.1 8.4 63 3.5 S 26 32 14 17 - - 0.0
31/03:30pm 15.4 9.4 8.6 64 3.5 S 30 35 16 19 - - 0.0
31/03:00pm 15.6 9.2 8.4 62 3.6 S 32 39 17 21 - - 0.0
31/02:30pm 15.7 10.0 8.2 61 3.8 S 28 35 15 19 - - 0.0
31/02:00pm 15.6 9.3 7.4 58 4.1 SSE 30 35 16 19 - - 0.0
31/01:30pm 15.6 9.8 7.9 60 3.9 SSE 28 33 15 18 - - 0.0
31/01:00pm 15.3 9.7 7.1 58 4.0 SSE 26 32 14 17 - - 0.0
31/12:30pm 15.2 9.6 7.2 59 3.9 SSE 26 32 14 17 - - 0.0
31/12:00pm 15.8 10.9 6.8 55 4.4 S 22 28 12 15 - - 0.0
31/11:30am 15.4 9.6 4.5 48 5.1 S 24 30 13 16 - - 0.0
31/11:00am 14.8 8.8 5.1 52 4.6 S 26 32 14 17 - - 0.0
31/10:30am 14.4 9.0 4.7 52 4.5 S 22 26 12 14 - - 0.0
31/10:00am 14.5 9.3 5.3 54 4.3 SSW 22 26 12 14 - - 0.0
31/09:30am 14.0 8.7 5.1 55 4.2 SSW 22 32 12 17 - - 0.0
31/09:00am 13.7 8.8 5.3 57 3.9 SW 20 28 11 15 - - 0.0
31/08:30am 13.1 8.7 4.5 56 3.9 SW 17 24 9 13 - - 0.0
31/08:00am 12.2 8.1 4.2 58 3.6 SW 15 20 8 11 - - 0.0
31/07:30am 11.4 7.7 4.2 61 3.2 SW 13 15 7 8 - - 0.0
31/07:00am 10.3 6.5 3.8 64 2.9 WSW 13 17 7 9 - - 0.0
31/06:30am 9.6 5.4 3.8 67 2.5 WSW 15 19 8 10 - - 0.0
31/06:00am 9.3 4.8 4.3 71 2.2 SW 17 19 9 10 - - 0.0
31/05:30am 8.4 5.3 3.7 72 2.0 WSW 9 11 5 6 - - 0.0
31/05:00am 9.1 6.1 3.9 70 2.3 WSW 9 11 5 6 - - 0.0
31/04:30am 9.7 6.3 4.1 68 2.5 SW 11 15 6 8 - - 0.0
31/04:00am 9.8 6.5 4.8 71 2.2 SW 11 17 6 9 - - 0.0
31/03:30am 9.4 6.5 4.4 71 2.2 W 9 13 5 7 - - 0.0
31/03:00am 10.2 7.4 5.2 71 2.3 W 9 13 5 7 - - 0.0
31/02:30am 10.3 7.4 4.7 68 2.5 W 9 11 5 6 - - 0.0
31/02:00am 10.2 7.3 4.8 69 2.4 WSW 9 13 5 7 - - 0.0
31/01:30am 11.0 7.0 4.9 66 2.8 SW 15 19 8 10 - - 0.0
31/01:00am 11.3 6.9 5.0 65 2.9 SW 17 20 9 11 - - 0.0
31/12:30am 11.6 7.0 5.5 66 2.8 SW 19 22 10 12 - - 0.0
31/12:00am 11.8 7.5 5.4 65 3.0 SW 17 20 9 11 - - 0.0
 
Date/Time
EST
Tmp

°C
App
Tmp
°C
Dew
Point
°C
Rel
Hum
%
Delta-T

°C
Wind Press
QNH
hPa
Press
MSL
hPa
Rain
since
9 am
mm
Dir
 
Spd
km/h
Gust
km/h
Spd
kts
Gust
kts
30/11:30pm 12.2 8.3 5.4 63 3.2 SW 15 19 8 10 - - 0.0
30/11:00pm 12.8 9.0 5.7 62 3.3 SW 15 22 8 12 - - 0.0
30/10:30pm 12.7 8.6 6.1 64 3.1 SW 17 24 9 13 - - 0.0
30/10:00pm 13.0 8.9 6.4 64 3.1 SW 17 20 9 11 - - 0.0
30/09:30pm 12.8 8.4 6.4 65 3.0 SW 19 24 10 13 - - 0.0
30/09:00pm 12.9 8.9 6.7 66 3.0 SW 17 22 9 12 - - 0.0
30/08:30pm 12.5 8.5 6.8 68 2.7 SW 17 20 9 11 - - 0.0
30/08:00pm 12.8 8.5 7.0 68 2.8 SW 19 24 10 13 - - 0.0
30/07:30pm 13.1 8.8 7.1 67 2.9 SW 19 26 10 14 - - 0.0
30/07:00pm 13.5 9.1 7.5 67 2.9 SW 20 30 11 16 - - 0.0
30/06:30pm 14.5 9.1 7.8 64 3.3 SSW 26 35 14 19 - - 0.0
30/06:00pm 15.0 8.5 8.0 63 3.5 S 32 35 17 19 - - 0.0
30/05:30pm 14.8 8.9 7.6 62 3.6 S 28 35 15 19 - - 0.0
30/05:00pm 14.7 8.6 6.8 59 3.8 S 28 35 15 19 - - 0.0
30/04:30pm 14.8 8.3 6.6 58 4.0 SSE 30 37 16 20 - - 0.0
30/04:00pm 14.7 7.3 6.8 59 3.8 S 35 41 19 22 - - 0.0
30/03:30pm 15.2 7.8 6.7 57 4.1 S 35 43 19 23 - - 0.0
30/03:00pm 15.0 7.5 7.8 62 3.6 S 37 44 20 24 - - 0.0
30/02:30pm 15.1 8.0 8.1 63 3.5 S 35 43 19 23 - - 0.0
30/02:00pm 15.2 8.4 7.7 61 3.7 S 33 39 18 21 - - 0.0
30/01:30pm 15.1 8.4 7.4 60 3.8 S 32 39 17 21 - - 0.0
30/01:00pm 15.1 8.4 7.2 59 3.9 SSE 32 39 17 21 - - 0.0
30/12:30pm 15.1 9.9 7.4 60 3.8 SSE 24 32 13 17 - - 0.0
30/12:00pm 15.1 9.0 6.4 56 4.2 SSE 28 37 15 20 - - 0.0
30/11:30am 15.1 9.6 6.1 55 4.3 S 24 30 13 16 - - 0.0
30/11:00am 15.2 10.4 5.4 52 4.7 S 20 30 11 16 - - 0.0
30/10:30am 14.8 9.9 5.1 52 4.6 S 20 24 11 13 - - 0.0
30/10:00am 14.4 9.3 4.1 50 4.7 SSW 20 26 11 14 - - 0.0
30/09:30am 14.5 9.8 5.3 54 4.3 SSW 19 26 10 14 - - 0.0
30/09:00am 13.9 9.3 3.7 50 4.6 SW 17 22 9 12 - - 0.0
30/08:30am 13.4 8.9 4.0 53 4.3 SW 17 20 9 11 - - 0.0
30/08:00am 12.4 8.5 3.6 55 3.9 SW 13 19 7 10 - - 0.0
30/07:30am 11.0 7.8 3.1 58 3.4 WSW 9 13 5 7 - - 0.0
30/07:00am 9.8 5.7 2.4 60 3.1 WSW 13 15 7 8 - - 0.0
30/06:30am 9.3 4.5 2.4 62 2.9 SW 17 20 9 11 - - 0.0
30/06:00am 8.6 5.3 2.2 64 2.7 SW 9 13 5 7 - - 0.0
30/05:30am 8.6 6.2 2.0 63 2.7 WNW 4 7 2 4 - - 0.0
30/05:00am 9.0 5.6 2.1 62 2.9 WSW 9 13 5 7 - - 0.0
30/04:30am 9.4 6.0 1.8 59 3.2 W 9 13 5 7 - - 0.0
30/04:00am 9.8 6.4 1.7 57 3.4 W 9 13 5 7 - - 0.0
30/03:30am 9.8 5.6 1.9 58 3.3 WSW 13 17 7 9 - - 0.0
30/03:00am 9.4 5.7 2.3 61 3.0 W 11 13 6 7 - - 0.0
30/02:30am 9.2 6.5 2.5 63 2.8 W 6 11 3 6 - - 0.0
30/02:00am 9.3 7.8 2.9 64 2.7 CALM 0 4 0 2 - - 0.0
30/01:30am 9.0 6.0 2.3 63 2.8 WNW 7 9 4 5 - - 0.0
30/01:00am 9.2 5.9 2.3 62 2.9 WNW 9 11 5 6 - - 0.0
30/12:30am 9.9 6.2 2.3 59 3.2 WNW 11 17 6 9 - - 0.0
30/12:00am 10.1 5.2 2.2 58 3.3 WNW 17 22 9 12 - - 0.0
 
Date/Time
EST
Tmp

°C
App
Tmp
°C
Dew
Point
°C
Rel
Hum
%
Delta-T

°C
Wind Press
QNH
hPa
Press
MSL
hPa
Rain
since
9 am
mm
Dir
 
Spd
km/h
Gust
km/h
Spd
kts
Gust
kts
29/11:30pm 10.5 6.0 2.4 57 3.5 WNW 15 22 8 12 - - 0.0
29/11:00pm 10.8 7.1 2.1 55 3.7 W 11 17 6 9 - - 0.0
29/10:30pm 10.8 6.7 2.1 55 3.7 W 13 17 7 9 - - 0.0
29/10:00pm 11.1 7.3 1.9 53 3.9 W 11 17 6 9 - - 0.0
29/09:30pm 11.3 7.9 1.8 52 4.0 W 9 17 5 9 - - 0.0
29/09:00pm 11.7 7.5 1.6 50 4.3 WSW 13 20 7 11 - - 0.0
29/08:30pm 12.2 7.6 1.5 48 4.5 WSW 15 20 8 11 - - 0.0

Latest Capital City Observations: Canberra | Sydney | Melbourne | Brisbane | Adelaide | Perth | Hobart | Darwin

Other Formats:

Comma delimited format used in spreadsheet applications
http://www.bom.gov.au/fwo/IDN60901/IDN60901.94749.axf

JavaScript Object Notation format (JSON) in row-major order
http://www.bom.gov.au/fwo/IDN60901/IDN60901.94749.json